sensor_id;sensor_type;location;lat;lon;timestamp;temperature;humidity
26224;DHT22;14820;48.682;8.890;2024-03-17T12:27:44;11.90;99.90
26224;DHT22;14820;48.682;8.890;2024-03-17T12:30:12;11.80;99.90
26224;DHT22;14820;48.682;8.890;2024-03-17T12:32:38;11.80;99.90
26224;DHT22;14820;48.682;8.890;2024-03-17T12:35:14;11.80;99.90
26224;DHT22;14820;48.682;8.890;2024-03-17T12:37:44;11.80;99.90
26224;DHT22;14820;48.682;8.890;2024-03-17T12:40:23;11.80;99.90
26224;DHT22;14820;48.682;8.890;2024-03-17T12:42:50;11.90;99.90
26224;DHT22;14820;48.682;8.890;2024-03-17T12:45:22;11.90;99.90
26224;DHT22;14820;48.682;8.890;2024-03-17T12:47:49;11.90;99.90
26224;DHT22;14820;48.682;8.890;2024-03-17T12:50:16;12.00;99.90
26224;DHT22;14820;48.682;8.890;2024-03-17T12:52:52;12.10;99.90
26224;DHT22;14820;48.682;8.890;2024-03-17T12:55:18;12.10;99.90
26224;DHT22;14820;48.682;8.890;2024-03-17T13:00:47;12.20;99.90
26224;DHT22;14820;48.682;8.890;2024-03-17T13:03:31;12.30;99.90
26224;DHT22;14820;48.682;8.890;2024-03-17T13:05:58;12.30;99.90
26224;DHT22;14820;48.682;8.890;2024-03-17T13:08:25;12.40;99.90
26224;DHT22;14820;48.682;8.890;2024-03-17T13:10:50;12.40;99.90
26224;DHT22;14820;48.682;8.890;2024-03-17T13:13:16;12.40;99.90
26224;DHT22;14820;48.682;8.890;2024-03-17T13:15:43;12.40;99.90
26224;DHT22;14820;48.682;8.890;2024-03-17T13:18:09;12.40;99.90
26224;DHT22;14820;48.682;8.890;2024-03-17T13:20:35;12.40;99.90
26224;DHT22;14820;48.682;8.890;2024-03-17T13:23:01;12.40;99.90
26224;DHT22;14820;48.682;8.890;2024-03-17T13:25:30;12.40;99.90
26224;DHT22;14820;48.682;8.890;2024-03-17T13:28:02;12.40;99.90
26224;DHT22;14820;48.682;8.890;2024-03-17T13:30:29;12.40;99.90
26224;DHT22;14820;48.682;8.890;2024-03-17T13:32:56;12.50;99.90
26224;DHT22;14820;48.682;8.890;2024-03-17T13:35:29;12.50;99.90
26224;DHT22;14820;48.682;8.890;2024-03-17T13:37:57;12.50;99.90
26224;DHT22;14820;48.682;8.890;2024-03-17T13:40:26;12.60;99.90
26224;DHT22;14820;48.682;8.890;2024-03-17T13:42:54;12.70;99.90
26224;DHT22;14820;48.682;8.890;2024-03-17T13:45:22;12.80;99.90
26224;DHT22;14820;48.682;8.890;2024-03-17T13:47:57;12.90;99.90
26224;DHT22;14820;48.682;8.890;2024-03-17T13:50:23;12.90;99.90
26224;DHT22;14820;48.682;8.890;2024-03-17T13:52:49;13.00;99.90
26224;DHT22;14820;48.682;8.890;2024-03-17T13:55:21;13.00;99.90
26224;DHT22;14820;48.682;8.890;2024-03-17T13:57:50;13.10;99.90
26224;DHT22;14820;48.682;8.890;2024-03-17T14:00:17;13.10;99.90
26224;DHT22;14820;48.682;8.890;2024-03-17T14:02:50;13.30;99.90
26224;DHT22;14820;48.682;8.890;2024-03-17T14:05:18;13.30;99.90
26224;DHT22;14820;48.682;8.890;2024-03-17T14:07:44;13.30;99.90
26224;DHT22;14820;48.682;8.890;2024-03-17T14:10:11;13.30;99.90
26224;DHT22;14820;48.682;8.890;2024-03-17T14:12:37;13.20;99.90
26224;DHT22;14820;48.682;8.890;2024-03-17T14:15:05;13.20;99.90
26224;DHT22;14820;48.682;8.890;2024-03-17T14:17:31;13.20;99.90
26224;DHT22;14820;48.682;8.890;2024-03-17T14:19:56;13.20;99.90
26224;DHT22;14820;48.682;8.890;2024-03-17T14:22:22;13.30;99.90
26224;DHT22;14820;48.682;8.890;2024-03-17T14:24:48;13.40;99.90
26224;DHT22;14820;48.682;8.890;2024-03-17T14:27:15;13.50;99.90
26224;DHT22;14820;48.682;8.890;2024-03-17T14:29:42;13.60;99.90
26224;DHT22;14820;48.682;8.890;2024-03-17T14:32:08;13.60;99.90
26224;DHT22;14820;48.682;8.890;2024-03-17T14:34:34;13.50;99.90
26224;DHT22;14820;48.682;8.890;2024-03-17T14:37:03;13.50;99.90
26224;DHT22;14820;48.682;8.890;2024-03-17T14:39:29;13.50;99.90
26224;DHT22;14820;48.682;8.890;2024-03-17T14:41:55;13.40;99.90
26224;DHT22;14820;48.682;8.890;2024-03-17T14:44:22;13.40;99.90
26224;DHT22;14820;48.682;8.890;2024-03-17T14:46:48;13.40;99.90
26224;DHT22;14820;48.682;8.890;2024-03-17T14:49:20;13.40;99.90
26224;DHT22;14820;48.682;8.890;2024-03-17T14:51:46;13.40;99.90
26224;DHT22;14820;48.682;8.890;2024-03-17T14:54:13;13.30;99.90
26224;DHT22;14820;48.682;8.890;2024-03-17T14:56:39;13.30;99.90
26224;DHT22;14820;48.682;8.890;2024-03-17T14:59:07;13.20;99.90
26224;DHT22;14820;48.682;8.890;2024-03-17T15:01:33;13.30;99.90
26224;DHT22;14820;48.682;8.890;2024-03-17T15:03:59;13.20;99.90
26224;DHT22;14820;48.682;8.890;2024-03-17T15:06:25;13.20;99.90
26224;DHT22;14820;48.682;8.890;2024-03-17T15:08:52;13.20;99.90
26224;DHT22;14820;48.682;8.890;2024-03-17T15:11:18;13.20;99.90
26224;DHT22;14820;48.682;8.890;2024-03-17T15:13:44;13.20;99.90
26224;DHT22;14820;48.682;8.890;2024-03-17T15:16:11;13.20;99.90
26224;DHT22;14820;48.682;8.890;2024-03-17T15:18:38;13.20;99.90
26224;DHT22;14820;48.682;8.890;2024-03-17T15:21:04;13.10;99.90
26224;DHT22;14820;48.682;8.890;2024-03-17T15:23:32;13.10;99.90
26224;DHT22;14820;48.682;8.890;2024-03-17T15:26:03;13.10;99.90
26224;DHT22;14820;48.682;8.890;2024-03-17T15:28:38;13.10;99.90
26224;DHT22;14820;48.682;8.890;2024-03-17T15:31:08;13.00;99.90
26224;DHT22;14820;48.682;8.890;2024-03-17T15:33:34;13.00;99.90
26224;DHT22;14820;48.682;8.890;2024-03-17T15:36:04;12.90;99.90
26224;DHT22;14820;48.682;8.890;2024-03-17T15:38:37;12.90;99.90
26224;DHT22;14820;48.682;8.890;2024-03-17T15:41:04;12.90;99.90
26224;DHT22;14820;48.682;8.890;2024-03-17T15:43:36;12.90;99.90
26224;DHT22;14820;48.682;8.890;2024-03-17T15:46:20;12.80;99.90
26224;DHT22;14820;48.682;8.890;2024-03-17T15:48:48;12.80;99.90
26224;DHT22;14820;48.682;8.890;2024-03-17T15:51:14;12.70;99.90
26224;DHT22;14820;48.682;8.890;2024-03-17T15:53:41;12.70;99.90
26224;DHT22;14820;48.682;8.890;2024-03-17T15:56:06;12.70;99.90
26224;DHT22;14820;48.682;8.890;2024-03-17T15:58:33;12.70;99.90
26224;DHT22;14820;48.682;8.890;2024-03-17T16:00:59;12.70;99.90
26224;DHT22;14820;48.682;8.890;2024-03-17T16:03:30;12.70;99.90
26224;DHT22;14820;48.682;8.890;2024-03-17T16:06:07;12.70;99.90
26224;DHT22;14820;48.682;8.890;2024-03-17T16:08:40;12.60;99.90
26224;DHT22;14820;48.682;8.890;2024-03-17T16:11:08;12.60;99.90
26224;DHT22;14820;48.682;8.890;2024-03-17T16:13:39;12.60;99.90
26224;DHT22;14820;48.682;8.890;2024-03-17T16:16:07;12.60;99.90
26224;DHT22;14820;48.682;8.890;2024-03-17T16:18:35;12.60;99.90
26224;DHT22;14820;48.682;8.890;2024-03-17T16:23:40;12.50;99.90
26224;DHT22;14820;48.682;8.890;2024-03-17T16:26:08;12.50;99.90
26224;DHT22;14820;48.682;8.890;2024-03-17T16:28:35;12.50;99.90
26224;DHT22;14820;48.682;8.890;2024-03-17T16:31:03;12.40;99.90
26224;DHT22;14820;48.682;8.890;2024-03-17T16:33:29;12.40;99.90
26224;DHT22;14820;48.682;8.890;2024-03-17T16:35:56;12.40;99.90
26224;DHT22;14820;48.682;8.890;2024-03-17T16:38:24;12.40;99.90
26224;DHT22;14820;48.682;8.890;2024-03-17T16:40:50;12.40;99.90
26224;DHT22;14820;48.682;8.890;2024-03-17T16:43:38;12.30;99.90
26224;DHT22;14820;48.682;8.890;2024-03-17T16:49:10;12.30;99.90
26224;DHT22;14820;48.682;8.890;2024-03-17T16:51:36;12.30;99.90
26224;DHT22;14820;48.682;8.890;2024-03-17T16:54:02;12.20;99.90
26224;DHT22;14820;48.682;8.890;2024-03-17T16:56:29;12.20;99.90
26224;DHT22;14820;48.682;8.890;2024-03-17T16:58:55;12.20;99.90
26224;DHT22;14820;48.682;8.890;2024-03-17T17:01:21;12.20;99.90
26224;DHT22;14820;48.682;8.890;2024-03-17T17:03:48;12.20;99.90
26224;DHT22;14820;48.682;8.890;2024-03-17T17:06:14;12.10;99.90
26224;DHT22;14820;48.682;8.890;2024-03-17T17:08:40;12.10;99.90
26224;DHT22;14820;48.682;8.890;2024-03-17T17:11:06;12.10;99.90
26224;DHT22;14820;48.682;8.890;2024-03-17T17:13:35;12.10;99.90
26224;DHT22;14820;48.682;8.890;2024-03-17T17:16:01;12.00;99.90
26224;DHT22;14820;48.682;8.890;2024-03-17T17:21:18;12.00;99.90
26224;DHT22;14820;48.682;8.890;2024-03-17T17:23:45;11.90;99.90
26224;DHT22;14820;48.682;8.890;2024-03-17T17:26:18;11.90;99.90
26224;DHT22;14820;48.682;8.890;2024-03-17T17:28:45;11.80;99.90
26224;DHT22;14820;48.682;8.890;2024-03-17T17:31:11;11.80;99.90
26224;DHT22;14820;48.682;8.890;2024-03-17T17:33:41;11.80;99.90
26224;DHT22;14820;48.682;8.890;2024-03-17T17:36:08;11.80;99.90
26224;DHT22;14820;48.682;8.890;2024-03-17T17:38:35;11.80;99.90
26224;DHT22;14820;48.682;8.890;2024-03-17T17:41:07;11.70;99.90
26224;DHT22;14820;48.682;8.890;2024-03-17T17:43:40;11.70;99.90
26224;DHT22;14820;48.682;8.890;2024-03-17T17:46:11;11.60;99.90
26224;DHT22;14820;48.682;8.890;2024-03-17T17:48:37;11.60;99.90
26224;DHT22;14820;48.682;8.890;2024-03-17T17:51:08;11.60;99.90
26224;DHT22;14820;48.682;8.890;2024-03-17T17:53:34;11.50;99.90
26224;DHT22;14820;48.682;8.890;2024-03-17T17:56:11;11.50;99.90
26224;DHT22;14820;48.682;8.890;2024-03-17T17:58:39;11.40;99.90
26224;DHT22;14820;48.682;8.890;2024-03-17T18:01:05;11.40;99.90
26224;DHT22;14820;48.682;8.890;2024-03-17T18:03:34;11.40;99.90
26224;DHT22;14820;48.682;8.890;2024-03-17T18:06:01;11.40;99.90
26224;DHT22;14820;48.682;8.890;2024-03-17T18:08:27;11.40;99.90
26224;DHT22;14820;48.682;8.890;2024-03-17T18:10:54;11.30;99.90
26224;DHT22;14820;48.682;8.890;2024-03-17T18:13:20;11.20;99.90
26224;DHT22;14820;48.682;8.890;2024-03-17T18:15:48;11.20;99.90
26224;DHT22;14820;48.682;8.890;2024-03-17T18:18:20;11.20;99.90
26224;DHT22;14820;48.682;8.890;2024-03-17T18:20:56;11.20;99.90
26224;DHT22;14820;48.682;8.890;2024-03-17T18:23:23;11.10;99.90
26224;DHT22;14820;48.682;8.890;2024-03-17T18:25:50;11.10;99.90
26224;DHT22;14820;48.682;8.890;2024-03-17T18:28:16;11.10;99.90
26224;DHT22;14820;48.682;8.890;2024-03-17T18:30:42;11.00;99.90
26224;DHT22;14820;48.682;8.890;2024-03-17T18:33:08;11.00;99.90
26224;DHT22;14820;48.682;8.890;2024-03-17T18:35:34;10.90;99.90
26224;DHT22;14820;48.682;8.890;2024-03-17T18:38:01;10.90;99.90
26224;DHT22;14820;48.682;8.890;2024-03-17T18:40:27;10.90;99.90
26224;DHT22;14820;48.682;8.890;2024-03-17T18:42:53;10.80;99.90
26224;DHT22;14820;48.682;8.890;2024-03-17T18:45:22;10.80;99.90
26224;DHT22;14820;48.682;8.890;2024-03-17T18:47:51;10.70;99.90
26224;DHT22;14820;48.682;8.890;2024-03-17T18:50:18;10.70;99.90
26224;DHT22;14820;48.682;8.890;2024-03-17T18:52:44;10.70;99.90
26224;DHT22;14820;48.682;8.890;2024-03-17T18:55:13;10.60;99.90
26224;DHT22;14820;48.682;8.890;2024-03-17T18:57:40;10.50;99.90
26224;DHT22;14820;48.682;8.890;2024-03-17T19:00:06;10.40;99.90
26224;DHT22;14820;48.682;8.890;2024-03-17T19:02:57;10.40;99.90
26224;DHT22;14820;48.682;8.890;2024-03-17T19:05:23;10.30;99.90
26224;DHT22;14820;48.682;8.890;2024-03-17T19:07:57;10.20;99.90
26224;DHT22;14820;48.682;8.890;2024-03-17T19:10:23;10.20;99.90
26224;DHT22;14820;48.682;8.890;2024-03-17T19:12:49;10.20;99.90
26224;DHT22;14820;48.682;8.890;2024-03-17T19:15:17;10.10;99.90
26224;DHT22;14820;48.682;8.890;2024-03-17T19:17:43;10.20;99.90
26224;DHT22;14820;48.682;8.890;2024-03-17T19:20:09;10.20;99.90
26224;DHT22;14820;48.682;8.890;2024-03-17T19:22:42;10.10;99.90
26224;DHT22;14820;48.682;8.890;2024-03-17T19:25:08;10.00;99.90
26224;DHT22;14820;48.682;8.890;2024-03-17T19:27:35;10.00;99.90
26224;DHT22;14820;48.682;8.890;2024-03-17T19:30:02;10.00;99.90
26224;DHT22;14820;48.682;8.890;2024-03-17T19:32:30;10.00;99.90
26224;DHT22;14820;48.682;8.890;2024-03-17T19:34:55;9.90;99.90
26224;DHT22;14820;48.682;8.890;2024-03-17T19:37:21;9.90;99.90
26224;DHT22;14820;48.682;8.890;2024-03-17T19:39:47;9.80;99.90
26224;DHT22;14820;48.682;8.890;2024-03-17T19:42:13;9.80;99.90
26224;DHT22;14820;48.682;8.890;2024-03-17T19:44:38;9.70;99.90
26224;DHT22;14820;48.682;8.890;2024-03-17T19:47:09;9.70;99.90
26224;DHT22;14820;48.682;8.890;2024-03-17T19:49:34;9.70;99.90
26224;DHT22;14820;48.682;8.890;2024-03-17T19:52:00;9.60;99.90
26224;DHT22;14820;48.682;8.890;2024-03-17T19:54:26;9.50;99.90
26224;DHT22;14820;48.682;8.890;2024-03-17T19:56:52;9.50;99.90
26224;DHT22;14820;48.682;8.890;2024-03-17T19:59:18;9.50;99.90
26224;DHT22;14820;48.682;8.890;2024-03-17T20:01:44;9.50;99.90
26224;DHT22;14820;48.682;8.890;2024-03-17T20:04:10;9.50;99.90
26224;DHT22;14820;48.682;8.890;2024-03-17T20:06:36;9.50;99.90
26224;DHT22;14820;48.682;8.890;2024-03-17T20:09:03;9.50;99.90
26224;DHT22;14820;48.682;8.890;2024-03-17T20:11:29;9.50;99.90
26224;DHT22;14820;48.682;8.890;2024-03-17T20:13:55;9.50;99.90
26224;DHT22;14820;48.682;8.890;2024-03-17T20:16:22;9.40;99.90
26224;DHT22;14820;48.682;8.890;2024-03-17T20:18:52;9.50;99.90
26224;DHT22;14820;48.682;8.890;2024-03-17T20:21:20;9.40;99.90
26224;DHT22;14820;48.682;8.890;2024-03-17T20:23:46;9.40;99.90
26224;DHT22;14820;48.682;8.890;2024-03-17T20:26:12;9.30;99.90
26224;DHT22;14820;48.682;8.890;2024-03-17T20:28:39;9.30;99.90
26224;DHT22;14820;48.682;8.890;2024-03-17T20:31:05;9.30;99.90
26224;DHT22;14820;48.682;8.890;2024-03-17T20:33:30;9.30;99.90
26224;DHT22;14820;48.682;8.890;2024-03-17T20:35:57;9.30;99.90
26224;DHT22;14820;48.682;8.890;2024-03-17T20:38:24;9.20;99.90
26224;DHT22;14820;48.682;8.890;2024-03-17T20:40:50;9.20;99.90
26224;DHT22;14820;48.682;8.890;2024-03-17T20:43:15;9.20;99.90
26224;DHT22;14820;48.682;8.890;2024-03-17T20:45:41;9.20;99.90
26224;DHT22;14820;48.682;8.890;2024-03-17T20:48:07;9.10;99.90
26224;DHT22;14820;48.682;8.890;2024-03-17T20:50:33;9.20;99.90
26224;DHT22;14820;48.682;8.890;2024-03-17T20:53:00;9.20;99.90
26224;DHT22;14820;48.682;8.890;2024-03-17T20:55:25;9.20;99.90
26224;DHT22;14820;48.682;8.890;2024-03-17T20:57:54;9.20;99.90
26224;DHT22;14820;48.682;8.890;2024-03-17T21:00:24;9.20;99.90
26224;DHT22;14820;48.682;8.890;2024-03-17T21:02:53;9.20;99.90
26224;DHT22;14820;48.682;8.890;2024-03-17T21:05:26;9.20;99.90
26224;DHT22;14820;48.682;8.890;2024-03-17T21:07:54;9.10;99.90
26224;DHT22;14820;48.682;8.890;2024-03-17T21:10:20;9.10;99.90
26224;DHT22;14820;48.682;8.890;2024-03-17T21:12:48;9.10;99.90
26224;DHT22;14820;48.682;8.890;2024-03-17T21:15:18;9.10;99.90
26224;DHT22;14820;48.682;8.890;2024-03-17T21:17:45;9.10;99.90
26224;DHT22;14820;48.682;8.890;2024-03-17T21:20:14;9.00;99.90
26224;DHT22;14820;48.682;8.890;2024-03-17T21:22:43;9.00;99.90
26224;DHT22;14820;48.682;8.890;2024-03-17T21:25:10;9.00;99.90
26224;DHT22;14820;48.682;8.890;2024-03-17T21:27:37;9.00;99.90
26224;DHT22;14820;48.682;8.890;2024-03-17T21:30:10;9.00;99.90
26224;DHT22;14820;48.682;8.890;2024-03-17T21:32:37;9.00;99.90
26224;DHT22;14820;48.682;8.890;2024-03-17T21:35:03;9.00;99.90
26224;DHT22;14820;48.682;8.890;2024-03-17T21:37:28;9.00;99.90
26224;DHT22;14820;48.682;8.890;2024-03-17T21:39:54;9.00;99.90
26224;DHT22;14820;48.682;8.890;2024-03-17T21:42:24;9.00;99.90
26224;DHT22;14820;48.682;8.890;2024-03-17T21:44:53;9.00;99.90
26224;DHT22;14820;48.682;8.890;2024-03-17T21:47:19;9.00;99.90
26224;DHT22;14820;48.682;8.890;2024-03-17T21:49:45;9.00;99.90
26224;DHT22;14820;48.682;8.890;2024-03-17T21:52:13;9.00;99.90
26224;DHT22;14820;48.682;8.890;2024-03-17T21:54:39;9.00;99.90
26224;DHT22;14820;48.682;8.890;2024-03-17T21:57:08;8.90;99.90
26224;DHT22;14820;48.682;8.890;2024-03-17T21:59:35;8.90;99.90
26224;DHT22;14820;48.682;8.890;2024-03-17T22:02:00;8.80;99.90
26224;DHT22;14820;48.682;8.890;2024-03-17T22:04:26;8.90;99.90
26224;DHT22;14820;48.682;8.890;2024-03-17T22:06:53;8.80;99.90
26224;DHT22;14820;48.682;8.890;2024-03-17T22:09:18;8.80;99.90
26224;DHT22;14820;48.682;8.890;2024-03-17T22:11:44;8.90;99.90
26224;DHT22;14820;48.682;8.890;2024-03-17T22:14:10;8.90;99.90
26224;DHT22;14820;48.682;8.890;2024-03-17T22:16:36;8.90;99.90
26224;DHT22;14820;48.682;8.890;2024-03-17T22:19:04;8.90;99.90
26224;DHT22;14820;48.682;8.890;2024-03-17T22:21:32;8.90;99.90
26224;DHT22;14820;48.682;8.890;2024-03-17T22:23:58;8.90;99.90
26224;DHT22;14820;48.682;8.890;2024-03-17T22:26:24;8.90;99.90
26224;DHT22;14820;48.682;8.890;2024-03-17T22:28:49;8.90;99.90
26224;DHT22;14820;48.682;8.890;2024-03-17T22:31:15;8.80;99.90
26224;DHT22;14820;48.682;8.890;2024-03-17T22:33:41;8.80;99.90
26224;DHT22;14820;48.682;8.890;2024-03-17T22:36:07;8.80;99.90
26224;DHT22;14820;48.682;8.890;2024-03-17T22:38:33;8.80;99.90
26224;DHT22;14820;48.682;8.890;2024-03-17T22:43:30;8.80;99.90
26224;DHT22;14820;48.682;8.890;2024-03-17T22:45:58;8.70;99.90
26224;DHT22;14820;48.682;8.890;2024-03-17T22:48:25;8.70;99.90
26224;DHT22;14820;48.682;8.890;2024-03-17T22:50:59;8.70;99.90
26224;DHT22;14820;48.682;8.890;2024-03-17T22:53:24;8.70;99.90
26224;DHT22;14820;48.682;8.890;2024-03-17T22:55:52;8.70;99.90
26224;DHT22;14820;48.682;8.890;2024-03-17T22:58:19;8.70;99.90
26224;DHT22;14820;48.682;8.890;2024-03-17T23:00:45;8.70;99.90
26224;DHT22;14820;48.682;8.890;2024-03-17T23:03:22;8.70;99.90
26224;DHT22;14820;48.682;8.890;2024-03-17T23:05:50;8.60;99.90
26224;DHT22;14820;48.682;8.890;2024-03-17T23:08:17;8.60;99.90
26224;DHT22;14820;48.682;8.890;2024-03-17T23:10:43;8.60;99.90
26224;DHT22;14820;48.682;8.890;2024-03-17T23:13:10;8.70;99.90
26224;DHT22;14820;48.682;8.890;2024-03-17T23:15:40;8.60;99.90
26224;DHT22;14820;48.682;8.890;2024-03-17T23:18:06;8.70;99.90
26224;DHT22;14820;48.682;8.890;2024-03-17T23:20:37;8.70;99.90
26224;DHT22;14820;48.682;8.890;2024-03-17T23:23:04;8.70;99.90
26224;DHT22;14820;48.682;8.890;2024-03-17T23:25:30;8.70;99.90
26224;DHT22;14820;48.682;8.890;2024-03-17T23:27:56;8.80;99.90
26224;DHT22;14820;48.682;8.890;2024-03-17T23:30:22;8.80;99.90
26224;DHT22;14820;48.682;8.890;2024-03-17T23:32:48;8.80;99.90
26224;DHT22;14820;48.682;8.890;2024-03-17T23:35:14;8.70;99.90
26224;DHT22;14820;48.682;8.890;2024-03-17T23:37:40;8.70;99.90
26224;DHT22;14820;48.682;8.890;2024-03-17T23:40:07;8.70;99.90
26224;DHT22;14820;48.682;8.890;2024-03-17T23:42:36;8.70;99.90
26224;DHT22;14820;48.682;8.890;2024-03-17T23:45:03;8.80;99.90
26224;DHT22;14820;48.682;8.890;2024-03-17T23:47:29;8.70;99.90
26224;DHT22;14820;48.682;8.890;2024-03-17T23:49:55;8.70;99.90
26224;DHT22;14820;48.682;8.890;2024-03-17T23:52:21;8.70;99.90
26224;DHT22;14820;48.682;8.890;2024-03-17T23:54:47;8.70;99.90
26224;DHT22;14820;48.682;8.890;2024-03-17T23:57:13;8.70;99.90
26224;DHT22;14820;48.682;8.890;2024-03-17T23:59:39;8.70;99.90
